»·PEaware :: N799DS KSBA-KLGB

N799DS :: KSBA-KLGB

FLIGHT INFORMATION

Flight Status: Arrived
Operator: Privately registered:
United States
More flights under this callsign
Pilot: Wolfgang B. (15069)
Aircraft: CESSNA 172 SKYHAWK
(C172)
More flights by this aircraft type
Origin: KSBA Santa Barbara Mun
United States
Destination: KLGB Long Beach
United States
More flights between these airports :: More routes between these airports
Route: +KWANG CMA VNY V186 ADAMM V394 SLI
File this flight plan on PilotEdge
Remarks:
Altitude:
(Current/Filed)
5,000ft
Speed:
(Current/Filed)
120kts
Departed: 23-Oct-19 11:58 AM
Arrived: 23-Oct-19 01:10 PM
Distance/Time
Traveled:
92nm/1:12
Distance/Time
To Go:
Arrived

Flight Plot

Page will automatically refresh every two minutes.


Map Options




Map Legend


Flown Route
Filed Route
Departure Airport
Arrival Airport
Navaid (VOR, NDB)
Fix

Horizontal Profiles

Position Reports

Time Latitude Longitude Heading Altitude Ground
Speed
23-Oct-19 11:41 34.432743 -119.834498 146 14ft 0kts
23-Oct-19 11:42 34.432743 -119.834498 146 14ft 0kts
23-Oct-19 11:43 34.432743 -119.834498 146 14ft 0kts
23-Oct-19 11:44 34.432743 -119.834498 146 14ft 0kts
23-Oct-19 11:45 34.432743 -119.834498 146 14ft 0kts
23-Oct-19 11:46 34.432743 -119.834498 146 14ft 0kts
23-Oct-19 11:47 34.432743 -119.834498 146 14ft 0kts
23-Oct-19 11:48 34.432743 -119.834498 146 14ft 0kts
23-Oct-19 11:49 34.432743 -119.834498 146 14ft 0kts
23-Oct-19 11:50 34.432729 -119.834486 146 14ft 1kts
23-Oct-19 11:51 34.431413 -119.837349 246 14ft 17kts
23-Oct-19 11:52 34.430711 -119.839717 243 14ft 0kts
23-Oct-19 11:53 34.430711 -119.839717 243 14ft 0kts
23-Oct-19 11:54 34.430711 -119.839717 243 14ft 0kts
23-Oct-19 11:55 34.430711 -119.839717 243 14ft 0kts
23-Oct-19 11:56 34.430707 -119.839727 243 14ft 1kts
23-Oct-19 11:57 34.419788 -119.837045 164 291ft 80kts
23-Oct-19 11:58 34.399894 -119.830134 160 1418ft 72kts
23-Oct-19 11:59 34.380589 -119.823476 138 2385ft 71kts
23-Oct-19 12:00 34.380268 -119.801119 81 3299ft 69kts
23-Oct-19 12:01 34.382905 -119.778104 81 4159ft 69kts
23-Oct-19 12:02 34.385041 -119.754854 81 4962ft 71kts
23-Oct-19 12:03 34.382656 -119.721144 95 5019ft 116kts
23-Oct-19 12:04 34.377709 -119.681889 95 5017ft 118kts
23-Oct-19 12:05 34.372874 -119.643408 96 5017ft 112kts
23-Oct-19 12:06 34.368173 -119.605790 96 5017ft 113kts
23-Oct-19 12:07 34.363392 -119.566972 102 5020ft 124kts
23-Oct-19 12:08 34.358053 -119.525586 94 4998ft 119kts
23-Oct-19 12:09 34.353146 -119.486218 94 4999ft 118kts
23-Oct-19 12:10 34.348155 -119.446542 94 4999ft 119kts
23-Oct-19 12:11 34.343085 -119.406462 94 5018ft 121kts
23-Oct-19 12:12 34.337908 -119.365663 94 5018ft 123kts
23-Oct-19 12:13 34.332879 -119.326177 95 5018ft 125kts
23-Oct-19 12:14 34.327545 -119.284412 95 5018ft 126kts
23-Oct-19 12:15 34.322136 -119.242186 95 5017ft 127kts
23-Oct-19 12:16 34.316737 -119.200121 96 5015ft 129kts
23-Oct-19 12:17 34.311150 -119.156715 96 5013ft 131kts
23-Oct-19 12:18 34.305470 -119.112710 97 5012ft 133kts
23-Oct-19 12:19 34.299737 -119.068432 98 5010ft 134kts
23-Oct-19 12:20 34.293947 -119.023905 99 5009ft 134kts
23-Oct-19 12:21 34.288119 -118.979259 99 5009ft 134kts
23-Oct-19 12:22 34.282270 -118.934529 99 4963ft 134kts
23-Oct-19 12:23 34.276476 -118.890317 99 4963ft 133kts
23-Oct-19 12:24 34.270694 -118.846309 99 4963ft 132kts
23-Oct-19 12:25 34.264912 -118.802444 99 4963ft 131kts
23-Oct-19 12:26 34.259207 -118.759181 100 4968ft 131kts
23-Oct-19 12:27 34.253645 -118.717196 100 4973ft 130kts
23-Oct-19 12:28 34.247820 -118.673848 98 4977ft 122kts
23-Oct-19 12:29 34.242669 -118.635073 97 4981ft 115kts
23-Oct-19 12:30 34.237633 -118.597256 96 4985ft 115kts
23-Oct-19 12:31 34.232442 -118.558330 96 4990ft 121kts
23-Oct-19 12:32 34.227085 -118.518381 96 4990ft 122kts
23-Oct-19 12:33 34.219581 -118.479764 106 4989ft 120kts
23-Oct-19 12:34 34.208745 -118.443070 107 4989ft 120kts
23-Oct-19 12:35 34.197368 -118.405473 107 4989ft 119kts
23-Oct-19 12:36 34.186095 -118.368329 107 4989ft 119kts
23-Oct-19 12:37 34.175087 -118.332106 108 4991ft 118kts
23-Oct-19 12:38 34.164132 -118.296120 108 4990ft 118kts
23-Oct-19 12:39 34.153137 -118.260021 108 4989ft 119kts
23-Oct-19 12:40 34.142083 -118.223745 107 4987ft 121kts
23-Oct-19 12:41 34.130916 -118.187150 107 4986ft 122kts
23-Oct-19 12:42 34.120225 -118.152166 107 4985ft 124kts
23-Oct-19 12:43 34.108340 -118.113326 108 5011ft 125kts
23-Oct-19 12:44 34.096044 -118.073205 108 5009ft 127kts
23-Oct-19 12:45 34.083828 -118.033421 108 5014ft 128kts
23-Oct-19 12:46 34.071636 -117.993750 108 5018ft 129kts
23-Oct-19 12:47 34.059366 -117.953873 109 5020ft 130kts
23-Oct-19 12:48 34.046888 -117.913373 109 5022ft 131kts
23-Oct-19 12:49 34.034270 -117.872482 109 5023ft 131kts
23-Oct-19 12:50 34.020965 -117.831762 129 5019ft 132kts
23-Oct-19 12:51 33.987101 -117.831822 201 4959ft 127kts
23-Oct-19 12:52 33.954792 -117.847022 203 4463ft 126kts
23-Oct-19 12:53 33.919588 -117.852458 181 4019ft 127kts
23-Oct-19 12:54 33.884756 -117.853353 181 4008ft 129kts
23-Oct-19 12:55 33.848834 -117.854251 181 4008ft 129kts
23-Oct-19 12:56 33.813105 -117.855107 181 4008ft 129kts
23-Oct-19 12:57 33.777516 -117.855921 181 4008ft 129kts
23-Oct-19 12:58 33.741945 -117.856708 181 3830ft 128kts
23-Oct-19 12:59 33.706222 -117.857533 181 3325ft 127kts
23-Oct-19 13:00 33.681137 -117.876781 250 3010ft 125kts
23-Oct-19 13:01 33.674775 -117.916350 280 3009ft 122kts
23-Oct-19 13:02 33.680956 -117.956256 281 2735ft 119kts
23-Oct-19 13:03 33.690428 -117.993239 303 2237ft 118kts
23-Oct-19 13:04 33.711943 -118.023232 312 1742ft 120kts
23-Oct-19 13:05 33.733664 -118.049689 313 1611ft 107kts
23-Oct-19 13:06 33.754399 -118.074742 312 1584ft 110kts
23-Oct-19 13:07 33.765096 -118.087632 313 1324ft 109kts
23-Oct-19 13:09 33.812114 -118.150866 90 38ft 0kts
23-Oct-19 13:10 33.812114 -118.150866 90 38ft 0kts
23-Oct-19 13:11 33.812114 -118.150866 90 38ft 0kts

Navigation Log

Ident Type
Flight plan parsing failed, navigation log unavailable